Time,TemperatureF,DewpointF,PressureIn,WindDirection,WindDirectionDegrees,WindSpeedMPH,WindSpeedGustMPH,Humidity,HourlyPrecipIn,Conditions,Clouds,dailyrainin,SoftwareType,DateUTC
2013-04-22 00:11:00,29.5,20.9,30.67,NW,315,0.0,-999.0,70,-99.99,,,0.00,Acu-Link.com,2013-04-22 04:11:00,
2013-04-22 00:26:00,29.3,21.1,30.66,West,270,0.0,-999.0,71,-99.99,,,0.00,Acu-Link.com,2013-04-22 04:26:00,
2013-04-22 00:41:00,28.9,21.0,30.67,West,270,0.0,-999.0,72,-99.99,,,0.00,Acu-Link.com,2013-04-22 04:41:00,
2013-04-22 00:57:00,28.8,20.9,30.68,West,270,0.0,-999.0,72,-99.99,,,0.00,Acu-Link.com,2013-04-22 04:57:00,
2013-04-22 01:12:00,28.4,20.5,30.67,South,180,0.0,-999.0,72,-99.99,,,0.00,Acu-Link.com,2013-04-22 05:12:00,
2013-04-22 01:27:00,28.0,20.5,30.68,WSW,247,0.0,-999.0,73,-99.99,,,0.00,Acu-Link.com,2013-04-22 05:27:00,
2013-04-22 01:42:00,27.9,21.0,30.69,West,270,0.0,-999.0,75,-99.99,,,0.00,Acu-Link.com,2013-04-22 05:42:00,
2013-04-22 01:57:00,27.7,21.4,30.68,West,270,0.0,-999.0,77,-99.99,,,0.00,Acu-Link.com,2013-04-22 05:57:00,
2013-04-22 02:13:00,27.3,20.8,30.68,West,270,0.0,-999.0,76,-99.99,,,0.00,Acu-Link.com,2013-04-22 06:13:00,
2013-04-22 02:28:00,27.1,20.6,30.69,NW,315,0.0,-999.0,76,-99.99,,,0.00,Acu-Link.com,2013-04-22 06:28:00,
2013-04-22 02:43:00,27.0,20.5,30.70,SW,225,0.0,-999.0,76,-99.99,,,0.00,Acu-Link.com,2013-04-22 06:43:00,
2013-04-22 02:58:00,26.8,20.6,30.70,NE,45,0.0,-999.0,77,-99.99,,,0.00,Acu-Link.com,2013-04-22 06:58:00,
2013-04-22 03:13:00,26.4,20.5,30.70,NNE,22,0.0,-999.0,78,-99.99,,,0.00,Acu-Link.com,2013-04-22 07:13:00,
2013-04-22 03:29:00,26.4,20.2,30.70,NE,45,0.0,-999.0,77,-99.99,,,0.00,Acu-Link.com,2013-04-22 07:29:00,
2013-04-22 03:44:00,26.2,20.3,30.70,NNE,22,0.0,-999.0,78,-99.99,,,0.00,Acu-Link.com,2013-04-22 07:44:00,
2013-04-22 03:59:00,26.1,20.5,30.71,NNE,22,0.0,-999.0,79,-99.99,,,0.00,Acu-Link.com,2013-04-22 07:59:00,
2013-04-22 04:14:00,25.9,20.0,30.71,NNE,22,0.0,-999.0,78,-99.99,,,0.00,Acu-Link.com,2013-04-22 08:14:00,
2013-04-22 04:30:00,25.9,20.0,30.71,NNE,22,0.0,-999.0,78,-99.99,,,0.00,Acu-Link.com,2013-04-22 08:30:00,
2013-04-22 04:45:00,25.7,20.1,30.72,NE,45,0.0,-999.0,79,-99.99,,,0.00,Acu-Link.com,2013-04-22 08:45:00,
2013-04-22 05:00:00,25.5,20.5,30.72,NW,315,0.0,-999.0,81,-99.99,,,0.00,Acu-Link.com,2013-04-22 09:00:00,
2013-04-22 05:15:00,25.5,20.2,30.72,NW,315,0.0,-999.0,80,-99.99,,,0.00,Acu-Link.com,2013-04-22 09:15:00,
2013-04-22 05:31:00,25.3,20.3,30.74,NW,315,0.0,-999.0,81,-99.99,,,0.00,Acu-Link.com,2013-04-22 09:31:00,
2013-04-22 05:46:00,25.2,20.2,30.75,NW,315,0.0,-999.0,81,-99.99,,,0.00,Acu-Link.com,2013-04-22 09:46:00,
2013-04-22 06:01:00,25.0,20.0,30.74,NW,315,0.0,-999.0,81,-99.99,,,0.00,Acu-Link.com,2013-04-22 10:01:00,
2013-04-22 06:16:00,24.8,19.8,30.76,NW,315,0.0,-999.0,81,-99.99,,,0.00,Acu-Link.com,2013-04-22 10:16:00,
2013-04-22 06:31:00,24.8,19.8,30.76,NW,315,0.0,-999.0,81,-99.99,,,0.00,Acu-Link.com,2013-04-22 10:31:00,
2013-04-22 06:47:00,25.7,20.7,30.76,NW,315,0.0,-999.0,81,-99.99,,,0.00,Acu-Link.com,2013-04-22 10:47:00,
2013-04-22 07:02:00,27.0,21.4,30.77,NW,315,0.0,-999.0,79,-99.99,,,0.00,Acu-Link.com,2013-04-22 11:02:00,
2013-04-22 07:17:00,28.2,21.6,30.77,WSW,247,0.0,-999.0,76,-99.99,,,0.00,Acu-Link.com,2013-04-22 11:17:00,
2013-04-22 07:32:00,29.7,22.1,30.78,ESE,112,0.0,-999.0,73,-99.99,,,0.00,Acu-Link.com,2013-04-22 11:32:00,
2013-04-22 07:47:00,31.1,23.8,30.78,NNE,22,0.0,-999.0,74,-99.99,,,0.00,Acu-Link.com,2013-04-22 11:47:00,
2013-04-22 08:03:00,32.9,23.2,30.77,SSE,157,0.0,-999.0,67,-99.99,,,0.00,Acu-Link.com,2013-04-22 12:03:00,
2013-04-22 08:20:00,34.7,23.4,30.77,ENE,67,1.1,-999.0,63,-99.99,,,0.00,Acu-Link.com,2013-04-22 12:20:00,
2013-04-22 08:36:00,36.7,21.6,30.76,ESE,112,0.0,-999.0,54,-99.99,,,0.00,Acu-Link.com,2013-04-22 12:36:00,
2013-04-22 08:53:00,39.6,22.5,30.76,ENE,67,0.0,-999.0,50,-99.99,,,0.00,Acu-Link.com,2013-04-22 12:53:00,
2013-04-22 09:08:00,41.2,21.0,30.76,ESE,112,0.0,-999.0,44,-99.99,,,0.00,Acu-Link.com,2013-04-22 13:08:00,
2013-04-22 09:23:00,42.6,21.1,30.77,South,180,1.1,-999.0,42,-99.99,,,0.00,Acu-Link.com,2013-04-22 13:23:00,
2013-04-22 09:38:00,43.3,18.8,30.76,West,270,0.0,-999.0,37,-99.99,,,0.00,Acu-Link.com,2013-04-22 13:38:00,
2013-04-22 09:54:00,45.1,18.4,30.76,NE,45,1.7,-999.0,34,-99.99,,,0.00,Acu-Link.com,2013-04-22 13:54:00,
2013-04-22 10:09:00,46.6,21.1,30.76,East,90,0.0,-999.0,36,-99.99,,,0.00,Acu-Link.com,2013-04-22 14:09:00,
2013-04-22 10:24:00,44.8,20.1,30.76,South,180,2.2,-999.0,37,-99.99,,,0.00,Acu-Link.com,2013-04-22 14:24:00,
2013-04-22 10:40:00,45.5,20.8,30.76,SSE,157,2.2,-999.0,37,-99.99,,,0.00,Acu-Link.com,2013-04-22 14:40:00,
2013-04-22 10:55:00,46.0,21.2,30.76,ESE,112,2.2,-999.0,37,-99.99,,,0.00,Acu-Link.com,2013-04-22 14:55:00,
2013-04-22 11:10:00,45.9,21.7,30.77,SSE,157,1.7,-999.0,38,-99.99,,,0.00,Acu-Link.com,2013-04-22 15:10:00,
2013-04-22 11:26:00,46.0,23.6,30.77,SW,225,0.0,-999.0,41,-99.99,,,0.00,Acu-Link.com,2013-04-22 15:26:00,
2013-04-22 11:41:00,46.4,22.2,30.76,WSW,247,0.0,-999.0,38,-99.99,,,0.00,Acu-Link.com,2013-04-22 15:41:00,
2013-04-22 11:57:00,48.0,23.0,30.75,South,180,2.2,-999.0,37,-99.99,,,0.00,Acu-Link.com,2013-04-22 15:57:00,
2013-04-22 12:12:00,48.6,22.9,30.75,SW,225,0.0,-999.0,36,-99.99,,,0.00,Acu-Link.com,2013-04-22 16:12:00,
2013-04-22 12:27:00,49.1,22.0,30.73,South,180,2.7,-999.0,34,-99.99,,,0.00,Acu-Link.com,2013-04-22 16:27:00,
2013-04-22 12:42:00,50.5,24.6,30.72,WNW,292,1.1,-999.0,36,-99.99,,,0.00,Acu-Link.com,2013-04-22 16:42:00,
2013-04-22 12:57:00,50.9,19.8,30.70,WSW,247,1.1,-999.0,29,-99.99,,,0.00,Acu-Link.com,2013-04-22 16:57:00,
2013-04-22 13:13:00,51.8,21.4,30.70,SSW,202,1.7,-999.0,30,-99.99,,,0.00,Acu-Link.com,2013-04-22 17:13:00,
2013-04-22 13:28:00,51.1,19.1,30.69,SW,225,2.2,-999.0,28,-99.99,,,0.00,Acu-Link.com,2013-04-22 17:28:00,
2013-04-22 13:44:00,52.0,22.3,30.69,East,90,1.7,-999.0,31,-99.99,,,0.00,Acu-Link.com,2013-04-22 17:44:00,
2013-04-22 13:59:00,52.2,22.5,30.69,NNE,22,1.7,-999.0,31,-99.99,,,0.00,Acu-Link.com,2013-04-22 17:59:00,
2013-04-22 14:14:00,52.9,23.1,30.68,SSW,202,1.7,-999.0,31,-99.99,,,0.00,Acu-Link.com,2013-04-22 18:14:00,
2013-04-22 14:30:00,53.2,24.1,30.68,NW,315,0.0,-999.0,32,-99.99,,,0.00,Acu-Link.com,2013-04-22 18:30:00,
2013-04-22 14:45:00,55.4,22.0,30.66,ESE,112,1.7,-999.0,27,-99.99,,,0.00,Acu-Link.com,2013-04-22 18:45:00,
2013-04-22 15:00:00,55.9,25.7,30.67,ENE,67,0.0,-999.0,31,-99.99,,,0.00,Acu-Link.com,2013-04-22 19:00:00,
2013-04-22 15:15:00,55.2,22.7,30.65,ENE,67,1.7,-999.0,28,-99.99,,,0.00,Acu-Link.com,2013-04-22 19:15:00,
2013-04-22 15:30:00,54.0,20.8,30.64,South,180,2.7,-999.0,27,-99.99,,,0.00,Acu-Link.com,2013-04-22 19:30:00,
2013-04-22 15:46:00,53.6,21.3,30.64,WSW,247,2.2,-999.0,28,-99.99,,,0.00,Acu-Link.com,2013-04-22 19:46:00,
2013-04-22 16:01:00,54.3,21.9,30.63,SSW,202,2.2,-999.0,28,-99.99,,,0.00,Acu-Link.com,2013-04-22 20:01:00,
2013-04-22 16:16:00,53.2,20.1,30.62,SW,225,1.7,-999.0,27,-99.99,,,0.00,Acu-Link.com,2013-04-22 20:16:00,
2013-04-22 16:32:00,53.1,21.7,30.62,East,90,3.7,-999.0,29,-99.99,,,0.00,Acu-Link.com,2013-04-22 20:32:00,
2013-04-22 16:47:00,52.0,18.2,30.62,SSW,202,2.2,-999.0,26,-99.99,,,0.00,Acu-Link.com,2013-04-22 20:47:00,
2013-04-22 17:03:00,52.0,19.1,30.63,SSE,157,2.2,-999.0,27,-99.99,,,0.00,Acu-Link.com,2013-04-22 21:03:00,
2013-04-22 17:18:00,51.1,16.5,30.63,SSW,202,2.2,-999.0,25,-99.99,,,0.00,Acu-Link.com,2013-04-22 21:18:00,
2013-04-22 17:33:00,50.0,-18.3,30.63,NW,315,2.2,-999.0,5,-99.99,,,0.00,Acu-Link.com,2013-04-22 21:33:00,
2013-04-22 17:49:00,49.5,11.2,30.63,NNW,337,1.7,-999.0,21,-99.99,,,0.00,Acu-Link.com,2013-04-22 21:49:00,
2013-04-22 18:05:00,48.4,10.3,30.64,SW,225,1.1,-999.0,21,-99.99,,,0.00,Acu-Link.com,2013-04-22 22:05:00,
2013-04-22 18:20:00,47.5,12.5,30.63,WNW,292,1.7,-999.0,24,-99.99,,,0.00,Acu-Link.com,2013-04-22 22:20:00,
2013-04-22 18:36:00,46.6,19.1,30.63,South,180,2.2,-999.0,33,-99.99,,,0.00,Acu-Link.com,2013-04-22 22:36:00,
2013-04-22 18:51:00,45.3,21.8,30.63,West,270,0.0,-999.0,39,-99.99,,,0.00,Acu-Link.com,2013-04-22 22:51:00,
2013-04-22 19:06:00,44.1,23.1,30.63,ESE,112,0.0,-999.0,43,-99.99,,,0.00,Acu-Link.com,2013-04-22 23:06:00,
2013-04-22 19:21:00,42.8,24.5,30.63,North,0,0.0,-999.0,48,-99.99,,,0.00,Acu-Link.com,2013-04-22 23:21:00,
2013-04-22 19:36:00,41.7,25.4,30.64,NNW,337,0.0,-999.0,52,-99.99,,,0.00,Acu-Link.com,2013-04-22 23:36:00,
2013-04-22 19:52:00,40.6,25.7,30.65,NW,315,0.0,-999.0,55,-99.99,,,0.00,Acu-Link.com,2013-04-22 23:52:00,
2013-04-22 20:07:00,39.9,26.3,30.65,East,90,0.0,-999.0,58,-99.99,,,0.00,Acu-Link.com,2013-04-23 00:07:00,